createdAt,value
2017-11-23T00:01:49.878Z,94121.16
2017-11-23T00:04:17.624Z,94126.28
2017-11-23T00:06:45.354Z,94129.53
2017-11-23T00:09:13.143Z,94124.13
2017-11-23T00:11:40.861Z,94122.05
2017-11-23T00:14:09.627Z,94119.80
2017-11-23T00:16:37.472Z,94124.44
2017-11-23T00:19:05.163Z,94124.26
2017-11-23T00:21:32.887Z,94119.94
2017-11-23T00:24:00.830Z,94116.63
2017-11-23T00:26:28.533Z,94125.14
2017-11-23T00:28:56.229Z,94122.73
2017-11-23T00:31:23.989Z,94122.10
2017-11-23T00:33:51.755Z,94125.14
2017-11-23T00:36:19.509Z,94125.56
2017-11-23T00:38:47.303Z,94122.03
2017-11-23T00:41:15.119Z,94119.06
2017-11-23T00:43:42.904Z,94117.70
2017-11-23T00:46:10.615Z,94110.22
2017-11-23T00:48:38.377Z,94110.13
2017-11-23T00:51:06.072Z,94111.43
2017-11-23T00:53:33.772Z,94112.31
2017-11-23T00:56:01.571Z,94117.01
2017-11-23T00:58:29.289Z,94117.56
2017-11-23T01:00:56.986Z,94112.61
2017-11-23T01:03:24.760Z,94111.17
2017-11-23T01:05:52.506Z,94117.22
2017-11-23T01:08:20.223Z,94114.05
2017-11-23T01:10:47.976Z,94112.22
2017-11-23T01:13:15.653Z,94114.06
2017-11-23T01:15:43.397Z,94114.39
2017-11-23T01:18:11.131Z,94113.91
2017-11-23T01:20:38.832Z,94124.84
2017-11-23T01:23:06.578Z,94119.25
2017-11-23T01:25:34.305Z,94117.19
2017-11-23T01:28:02.139Z,94121.65
2017-11-23T01:30:29.871Z,94111.91
2017-11-23T01:32:57.672Z,94110.86
2017-11-23T01:35:25.536Z,94120.92
2017-11-23T01:37:53.247Z,94114.53
2017-11-23T01:40:21.272Z,94117.30
2017-11-23T01:42:49.139Z,94106.39
2017-11-23T01:45:16.844Z,94105.75
2017-11-23T01:47:44.609Z,94097.83
2017-11-23T01:50:12.331Z,94099.13
2017-11-23T01:52:40.060Z,94093.23
2017-11-23T01:55:07.817Z,94093.14
2017-11-23T01:57:35.572Z,94088.56
2017-11-23T02:00:03.382Z,94087.92
2017-11-23T02:02:31.170Z,94092.31
2017-11-23T02:04:58.941Z,94081.47
2017-11-23T02:07:26.686Z,94079.78
2017-11-23T02:09:54.490Z,94078.17
2017-11-23T02:12:22.301Z,94081.52
2017-11-23T02:14:50.185Z,94073.55
2017-11-23T02:17:18.761Z,94071.73
2017-11-23T02:19:46.634Z,94070.45
2017-11-23T02:22:14.481Z,94065.25
2017-11-23T02:24:42.325Z,94068.84
2017-11-23T02:27:10.178Z,94060.72
2017-11-23T02:29:38.021Z,94060.16
2017-11-23T02:32:05.830Z,94056.16
2017-11-23T02:34:33.670Z,94055.68
2017-11-23T02:37:01.443Z,94055.77
2017-11-23T02:39:29.270Z,94060.30
2017-11-23T02:41:56.968Z,94061.97
2017-11-23T02:44:24.706Z,94051.13
2017-11-23T02:46:52.521Z,94049.86
2017-11-23T02:49:20.230Z,94060.31
2017-11-23T02:51:48.289Z,94054.64
2017-11-23T02:54:16.074Z,94053.94
2017-11-23T02:56:43.875Z,94047.45
2017-11-23T02:59:11.715Z,94047.77
2017-11-23T03:01:39.410Z,94045.78
2017-11-23T03:04:07.197Z,94041.53
2017-11-23T03:06:34.898Z,94038.88
2017-11-23T03:09:02.668Z,94043.17
2017-11-23T03:11:30.441Z,94039.19
2017-11-23T03:13:58.180Z,94034.66
2017-11-23T03:16:25.943Z,94034.86
2017-11-23T03:18:53.805Z,94034.64
2017-11-23T03:21:21.580Z,94034.70
2017-11-23T03:23:49.329Z,94034.63
2017-11-23T03:26:17.104Z,94030.70
2017-11-23T03:28:44.848Z,94027.70
2017-11-23T03:31:12.929Z,94033.59
2017-11-23T03:33:40.665Z,94031.36
2017-11-23T03:36:08.401Z,94025.22
2017-11-23T03:38:36.155Z,94028.58
2017-11-23T03:41:03.967Z,94024.52
2017-11-23T03:43:31.726Z,94030.39
2017-11-23T03:45:59.511Z,94026.80
2017-11-23T03:48:27.219Z,94021.98
2017-11-23T03:50:54.976Z,94017.37
2017-11-23T03:53:22.672Z,94013.00
2017-11-23T03:55:50.464Z,94012.84
2017-11-23T03:58:18.146Z,94016.85
2017-11-23T04:00:45.934Z,94015.13
2017-11-23T04:03:13.787Z,94023.02
2017-11-23T04:05:41.589Z,94020.66
2017-11-23T04:08:09.309Z,94024.30
2017-11-23T04:10:37.059Z,94022.62
2017-11-23T04:13:04.839Z,94025.63
2017-11-23T04:15:32.530Z,94021.69
2017-11-23T04:18:00.281Z,94024.28
2017-11-23T04:20:28.003Z,94027.52
2017-11-23T04:22:55.752Z,94026.37
2017-11-23T04:25:23.488Z,94029.07
2017-11-23T04:27:51.287Z,94028.05
2017-11-23T04:30:19.023Z,94020.30
2017-11-23T04:32:46.769Z,94019.02
2017-11-23T04:35:14.513Z,94017.34
2017-11-23T04:37:42.252Z,94013.75
2017-11-23T04:40:09.965Z,94013.92
2017-11-23T04:42:37.779Z,94012.32
2017-11-23T04:45:05.532Z,94017.70
2017-11-23T04:47:33.340Z,94018.36
2017-11-23T04:50:01.133Z,94013.57
2017-11-23T04:52:28.831Z,94024.03
2017-11-23T04:54:56.537Z,94021.05
2017-11-23T04:57:24.406Z,94018.31
2017-11-23T04:59:52.094Z,94020.38
2017-11-23T05:02:19.770Z,94022.09
2017-11-23T05:04:47.530Z,94021.80
2017-11-23T05:07:15.259Z,94029.14
2017-11-23T05:09:43.018Z,94024.63
2017-11-23T05:12:10.758Z,94030.39
2017-11-23T05:14:38.495Z,94025.77
2017-11-23T05:17:06.193Z,94027.82
2017-11-23T05:19:33.934Z,94033.37
2017-11-23T05:22:01.737Z,94030.32
2017-11-23T05:24:29.599Z,94031.95
2017-11-23T05:26:57.288Z,94031.09
2017-11-23T05:29:25.102Z,94029.39
2017-11-23T05:31:52.795Z,94036.84
2017-11-23T05:34:20.527Z,94041.52
2017-11-23T05:36:48.286Z,94032.69
2017-11-23T05:39:15.986Z,94031.67
2017-11-23T05:41:43.778Z,94027.02
2017-11-23T05:44:11.568Z,94032.84
2017-11-23T05:46:39.320Z,94028.62
2017-11-23T05:49:07.106Z,94027.83
2017-11-23T05:51:34.927Z,94028.32
2017-11-23T05:54:02.638Z,94028.62
2017-11-23T05:56:30.384Z,94035.28
2017-11-23T05:58:58.953Z,94032.22
2017-11-23T06:01:26.993Z,94042.05
2017-11-23T06:03:54.986Z,94039.18
2017-11-23T06:06:22.678Z,94043.48
2017-11-23T06:08:50.453Z,94046.19
2017-11-23T06:11:18.202Z,94035.22
2017-11-23T06:13:45.922Z,94045.81
2017-11-23T06:16:13.730Z,94049.06
2017-11-23T06:18:41.419Z,94049.53
2017-11-23T06:21:09.285Z,94050.63
2017-11-23T06:23:37.161Z,94042.93
2017-11-23T06:26:04.937Z,94052.98
2017-11-23T06:28:32.699Z,94056.74
2017-11-23T06:31:00.381Z,94056.92
2017-11-23T06:33:28.133Z,94055.17
2017-11-23T06:35:55.852Z,94061.03
2017-11-23T06:38:23.661Z,94055.17
2017-11-23T06:40:51.358Z,94060.89
2017-11-23T06:43:19.173Z,94067.19
2017-11-23T06:45:46.880Z,94066.23
2017-11-23T06:48:14.717Z,94066.16
2017-11-23T06:50:42.413Z,94070.20
2017-11-23T06:53:10.159Z,94070.56
2017-11-23T06:55:37.893Z,94071.16
2017-11-23T06:58:05.597Z,94078.39
2017-11-23T07:00:33.349Z,94075.45
2017-11-23T07:03:01.064Z,94073.58
2017-11-23T07:05:28.767Z,94068.00
2017-11-23T07:07:56.902Z,94062.86
2017-11-23T07:10:24.627Z,94065.86
2017-11-23T07:12:52.322Z,94076.83
2017-11-23T07:15:20.179Z,94084.21
2017-11-23T07:17:53.541Z,94078.33
2017-11-23T07:20:21.267Z,94077.62
2017-11-23T07:22:49.789Z,94083.75
2017-11-23T07:25:17.535Z,94083.88
2017-11-23T07:27:45.322Z,94081.93
2017-11-23T07:30:13.049Z,94080.06
2017-11-23T07:32:40.768Z,94090.09
2017-11-23T07:35:08.511Z,94090.97
2017-11-23T07:37:36.218Z,94092.33
2017-11-23T07:40:04.070Z,94092.73
2017-11-23T07:42:31.786Z,94092.00
2017-11-23T07:44:59.483Z,94090.93
2017-11-23T07:47:27.357Z,94088.87
2017-11-23T07:49:55.252Z,94087.02
2017-11-23T07:52:23.493Z,94090.23
2017-11-23T07:54:52.878Z,94087.04
2017-11-23T07:57:21.059Z,94095.17
2017-11-23T07:59:48.797Z,94089.38
2017-11-23T08:02:16.494Z,94090.72
2017-11-23T08:04:44.246Z,94084.69
2017-11-23T08:07:12.013Z,94088.72
2017-11-23T08:09:39.812Z,94086.64
2017-11-23T08:12:07.531Z,94082.52
2017-11-23T08:14:35.301Z,94080.11
2017-11-23T08:17:03.081Z,94081.04
2017-11-23T08:19:30.916Z,94078.30
2017-11-23T08:21:58.712Z,94080.81
2017-11-23T08:24:26.470Z,94086.63
2017-11-23T08:26:54.228Z,94080.86
2017-11-23T08:29:21.971Z,94081.31
2017-11-23T08:31:49.817Z,94082.76
2017-11-23T08:34:17.511Z,94074.97
2017-11-23T08:36:45.214Z,94074.33
2017-11-23T08:39:12.963Z,94078.78
2017-11-23T08:41:40.728Z,94075.84
2017-11-23T08:44:08.484Z,94073.11
2017-11-23T08:46:36.176Z,94075.11
2017-11-23T08:49:03.982Z,94080.28
2017-11-23T08:51:31.708Z,94074.43
2017-11-23T08:53:59.454Z,94074.22
2017-11-23T08:56:27.381Z,94076.58
2017-11-23T08:58:55.096Z,94074.78
2017-11-23T09:01:22.800Z,94076.70
2017-11-23T09:03:50.618Z,94076.34
2017-11-23T09:06:18.399Z,94080.21
2017-11-23T09:08:46.192Z,94085.19
2017-11-23T09:11:14.248Z,94086.16
2017-11-23T09:13:42.605Z,94086.61
2017-11-23T09:16:10.383Z,94082.41
2017-11-23T09:18:38.517Z,94076.17
2017-11-23T09:21:06.220Z,94068.27
2017-11-23T09:23:34.043Z,94073.16
2017-11-23T09:26:01.771Z,94069.64
2017-11-23T09:28:29.500Z,94067.64
2017-11-23T09:30:57.248Z,94054.99
2017-11-23T09:33:25.051Z,94055.63
2017-11-23T09:35:52.767Z,94058.39
2017-11-23T09:38:20.558Z,94051.28
2017-11-23T09:40:48.419Z,94048.32
2017-11-23T09:43:16.119Z,94049.84
2017-11-23T09:45:43.855Z,94054.55
2017-11-23T09:48:11.561Z,94049.13
2017-11-23T09:50:39.272Z,94055.94
2017-11-23T09:53:07.026Z,94055.50
2017-11-23T09:55:34.825Z,94039.67
2017-11-23T09:58:02.634Z,94042.33
2017-11-23T10:00:30.351Z,94036.86
2017-11-23T10:02:58.042Z,94031.64
2017-11-23T10:05:25.844Z,94031.16
2017-11-23T10:07:53.616Z,94026.14
2017-11-23T10:10:21.590Z,94028.00
2017-11-23T10:12:49.425Z,94026.61
2017-11-23T10:15:17.162Z,94021.45
2017-11-23T10:17:44.994Z,94021.72
2017-11-23T10:20:12.663Z,94020.66
2017-11-23T10:22:40.405Z,94024.16
2017-11-23T10:25:08.136Z,94015.72
2017-11-23T10:27:35.812Z,94022.25
2017-11-23T10:30:03.568Z,94022.25
2017-11-23T10:32:31.353Z,94023.48
2017-11-23T10:34:59.069Z,94027.75
2017-11-23T10:37:32.241Z,94031.28
2017-11-23T10:39:59.957Z,94030.17
2017-11-23T10:42:27.770Z,94025.28
2017-11-23T10:44:55.554Z,94034.27
2017-11-23T10:47:24.342Z,94031.34
2017-11-23T10:49:52.062Z,94035.52
2017-11-23T10:52:19.922Z,94032.02
2017-11-23T10:54:47.686Z,94026.94
2017-11-23T10:57:16.557Z,94033.55
2017-11-23T10:59:44.292Z,94034.13
2017-11-23T11:02:12.009Z,94030.72
2017-11-23T11:04:39.813Z,94030.55
2017-11-23T11:07:07.637Z,94036.37
2017-11-23T11:09:35.345Z,94032.89
2017-11-23T11:12:03.095Z,94043.17
2017-11-23T11:14:31.178Z,94042.41
2017-11-23T11:16:58.925Z,94039.73
2017-11-23T11:19:26.746Z,94047.36
2017-11-23T11:21:55.481Z,94050.63
2017-11-23T11:24:23.188Z,94053.08
2017-11-23T11:26:50.977Z,94058.52
2017-11-23T11:29:18.753Z,94057.31
2017-11-23T11:31:47.134Z,94055.17
2017-11-23T11:34:14.894Z,94059.56
2017-11-23T11:36:42.658Z,94051.96
2017-11-23T11:39:10.420Z,94055.95
2017-11-23T11:41:38.158Z,94060.12
2017-11-23T11:44:05.954Z,94055.94
2017-11-23T11:46:33.625Z,94053.06
2017-11-23T11:49:01.376Z,94065.79
2017-11-23T11:51:29.786Z,94071.83
2017-11-23T11:53:57.589Z,94066.83
2017-11-23T11:56:25.388Z,94071.84
2017-11-23T11:58:53.100Z,94067.03
2017-11-23T12:01:20.843Z,94080.94
2017-11-23T12:03:50.694Z,94077.86
2017-11-23T12:06:18.482Z,94085.75
2017-11-23T12:08:46.411Z,94083.02
2017-11-23T12:11:14.180Z,94087.16
2017-11-23T12:16:49.826Z,94090.45
2017-11-23T12:19:17.817Z,94090.91
2017-11-23T12:25:02.632Z,94096.55
2017-11-23T12:27:42.141Z,94101.40
2017-11-23T12:30:12.778Z,94103.25
2017-11-23T12:32:40.558Z,94104.23
2017-11-23T12:35:08.351Z,94105.99
2017-11-23T12:37:36.216Z,94105.11
2017-11-23T12:40:05.629Z,94107.67
2017-11-23T12:42:33.387Z,94096.93
2017-11-23T12:45:01.154Z,94102.56
2017-11-23T12:47:29.515Z,94103.47
2017-11-23T12:49:57.301Z,94099.92
2017-11-23T12:52:25.236Z,94108.07
2017-11-23T12:54:52.989Z,94110.50
2017-11-23T12:57:20.756Z,94106.13
2017-11-23T12:59:48.525Z,94112.98
2017-11-23T13:02:16.266Z,94117.94
2017-11-23T13:04:44.022Z,94113.75
2017-11-23T13:07:12.386Z,94115.13
2017-11-23T13:09:40.151Z,94109.07
2017-11-23T13:12:07.873Z,94114.78
2017-11-23T13:14:35.637Z,94121.85
2017-11-23T13:17:03.361Z,94111.39
2017-11-23T13:19:31.087Z,94111.51
2017-11-23T13:21:58.914Z,94112.04
2017-11-23T13:24:26.703Z,94116.31
2017-11-23T13:26:54.485Z,94109.70
2017-11-23T13:29:22.225Z,94114.55
2017-11-23T13:31:49.987Z,94118.42
2017-11-23T13:34:17.791Z,94115.67
2017-11-23T13:36:45.606Z,94120.52
2017-11-23T13:39:13.445Z,94125.01
2017-11-23T13:41:41.180Z,94121.30
2017-11-23T13:44:08.949Z,94116.14
2017-11-23T13:46:36.741Z,94123.79
2017-11-23T13:49:04.479Z,94124.59
2017-11-23T13:51:32.179Z,94133.20
2017-11-23T13:53:59.912Z,94133.35
2017-11-23T13:56:28.802Z,94131.43
2017-11-23T13:58:57.666Z,94132.86
2017-11-23T14:01:25.446Z,94127.22
2017-11-23T14:03:53.194Z,94132.47
2017-11-23T14:06:21.489Z,94135.28
2017-11-23T14:08:49.200Z,94133.37
2017-11-23T14:11:17.799Z,94127.95
2017-11-23T14:13:45.568Z,94120.75
2017-11-23T14:16:14.291Z,94126.22
2017-11-23T14:18:42.036Z,94134.44
2017-11-23T14:21:09.918Z,94128.61
2017-11-23T14:23:38.295Z,94133.72
2017-11-23T14:26:06.086Z,94134.25
2017-11-23T14:28:34.601Z,94138.67
2017-11-23T14:31:03.391Z,94143.95
2017-11-23T14:33:31.100Z,94149.47
2017-11-23T14:35:58.862Z,94153.03
2017-11-23T14:38:27.287Z,94149.72
2017-11-23T14:40:55.111Z,94150.83
2017-11-23T14:43:22.819Z,94154.23
2017-11-23T14:45:50.599Z,94162.91
2017-11-23T14:48:18.307Z,94167.02
2017-11-23T14:50:46.863Z,94158.69
2017-11-23T14:53:14.683Z,94161.34
2017-11-23T14:55:42.458Z,94173.08
2017-11-23T14:58:10.202Z,94175.16
2017-11-23T15:00:37.991Z,94178.92
2017-11-23T15:03:05.720Z,94175.22
2017-11-23T15:05:33.476Z,94192.28
2017-11-23T15:08:02.078Z,94196.95
2017-11-23T15:10:29.827Z,94193.37
2017-11-23T15:12:58.622Z,94199.07
2017-11-23T15:15:26.356Z,94208.25
2017-11-23T15:17:54.332Z,94203.80
2017-11-23T15:20:23.049Z,94201.91
2017-11-23T15:22:50.793Z,94196.97
2017-11-23T15:25:18.569Z,94206.82
2017-11-23T15:27:46.367Z,94205.68
2017-11-23T15:30:14.149Z,94203.00
2017-11-23T15:32:41.946Z,94208.53
2017-11-23T15:35:09.864Z,94206.03
2017-11-23T15:37:37.573Z,94211.17
2017-11-23T15:40:05.362Z,94213.12
2017-11-23T15:42:33.073Z,94217.95
2017-11-23T15:45:00.930Z,94217.64
2017-11-23T15:47:28.972Z,94222.69
2017-11-23T15:49:56.688Z,94225.13
2017-11-23T15:52:24.467Z,94228.70
2017-11-23T15:54:52.349Z,94224.76
2017-11-23T15:57:20.076Z,94227.23
2017-11-23T15:59:47.861Z,94228.66
2017-11-23T16:02:15.583Z,94230.19
2017-11-23T16:04:43.415Z,94230.34
2017-11-23T16:07:11.121Z,94232.58
2017-11-23T16:09:38.899Z,94230.78
2017-11-23T16:12:06.614Z,94235.83
2017-11-23T16:14:35.041Z,94239.41
2017-11-23T16:17:02.816Z,94243.86
2017-11-23T16:19:31.128Z,94244.73
2017-11-23T16:21:58.895Z,94247.75
2017-11-23T16:24:26.738Z,94254.64
2017-11-23T16:26:54.557Z,94268.67
2017-11-23T16:29:22.390Z,94267.50
2017-11-23T16:31:50.194Z,94266.83
2017-11-23T16:34:18.048Z,94272.02
2017-11-23T16:36:46.006Z,94277.71
2017-11-23T16:39:15.441Z,94277.95
2017-11-23T16:44:52.037Z,94287.25
2017-11-23T16:47:25.278Z,94293.61
2017-11-23T16:49:58.658Z,94293.81
2017-11-23T16:55:34.216Z,94303.81
2017-11-23T16:58:03.301Z,94310.62
2017-11-23T17:03:37.118Z,94309.31
2017-11-23T17:06:10.341Z,94317.95
2017-11-23T17:08:40.076Z,94314.14
2017-11-23T17:11:14.185Z,94316.88
2017-11-23T17:16:54.644Z,94330.63
2017-11-23T17:19:25.347Z,94322.73
2017-11-23T17:21:53.087Z,94329.11
2017-11-23T17:24:20.836Z,94333.84
2017-11-23T17:26:48.605Z,94338.39
2017-11-23T17:29:16.347Z,94338.87
2017-11-23T17:31:44.050Z,94339.28
2017-11-23T17:34:11.780Z,94345.70
2017-11-23T17:36:39.564Z,94347.76
2017-11-23T17:39:07.276Z,94351.03
2017-11-23T17:41:35.087Z,94342.49
2017-11-23T17:44:03.459Z,94343.20
2017-11-23T17:46:32.376Z,94346.64
2017-11-23T17:49:00.209Z,94345.67
2017-11-23T17:51:28.010Z,94345.98
2017-11-23T17:53:56.861Z,94350.47
2017-11-23T17:56:25.282Z,94349.02
2017-11-23T17:58:59.117Z,94348.95
2017-11-23T18:01:27.379Z,94344.38
2017-11-23T18:03:55.363Z,94345.96
2017-11-23T18:06:23.332Z,94351.49
2017-11-23T18:08:51.043Z,94348.03
2017-11-23T18:11:18.846Z,94348.13
2017-11-23T18:13:46.624Z,94347.34
2017-11-23T18:16:14.389Z,94341.67
2017-11-23T18:18:42.136Z,94342.59
2017-11-23T18:21:10.072Z,94354.84
2017-11-23T18:23:37.837Z,94355.07
2017-11-23T18:26:05.637Z,94357.40
2017-11-23T18:28:34.895Z,94352.91
2017-11-23T18:31:04.575Z,94345.15
2017-11-23T18:33:33.166Z,94351.39
2017-11-23T18:36:01.685Z,94356.20
2017-11-23T18:38:30.392Z,94357.72
2017-11-23T18:40:58.242Z,94361.36
2017-11-23T18:43:29.844Z,94357.61
2017-11-23T18:45:59.415Z,94365.83
2017-11-23T18:48:30.815Z,94364.55
2017-11-23T18:50:58.529Z,94373.94
2017-11-23T18:53:26.277Z,94374.41
2017-11-23T18:55:56.239Z,94376.74
2017-11-23T18:58:24.263Z,94377.41
2017-11-23T19:00:52.216Z,94374.80
2017-11-23T19:03:19.970Z,94383.33
2017-11-23T19:05:47.754Z,94382.47
2017-11-23T19:08:15.503Z,94376.14
2017-11-23T19:10:43.415Z,94380.84
2017-11-23T19:13:11.205Z,94388.59
2017-11-23T19:15:39.006Z,94382.47
2017-11-23T19:18:06.805Z,94384.70
2017-11-23T19:20:34.761Z,94394.62
2017-11-23T19:23:03.510Z,94390.72
2017-11-23T19:25:31.288Z,94395.91
2017-11-23T19:27:59.073Z,94397.84
2017-11-23T19:30:26.829Z,94385.28
2017-11-23T19:32:54.687Z,94395.76
2017-11-23T19:35:22.426Z,94399.77
2017-11-23T19:37:50.224Z,94397.52
2017-11-23T19:40:18.018Z,94393.80
2017-11-23T19:42:46.586Z,94401.25
2017-11-23T19:45:14.356Z,94405.16
2017-11-23T19:47:42.252Z,94412.50
2017-11-23T19:50:10.100Z,94406.84
2017-11-23T19:52:38.030Z,94418.06
2017-11-23T19:55:05.829Z,94406.84
2017-11-23T19:57:33.747Z,94405.08
2017-11-23T20:00:01.552Z,94407.66
2017-11-23T20:02:29.825Z,94416.81
2017-11-23T20:04:57.592Z,94416.79
2017-11-23T20:07:25.388Z,94426.16
2017-11-23T20:09:53.239Z,94425.28
2017-11-23T20:12:21.135Z,94431.34
2017-11-23T20:14:48.893Z,94427.89
2017-11-23T20:17:16.688Z,94423.69
2017-11-23T20:19:44.508Z,94427.64
2017-11-23T20:22:12.445Z,94428.16
2017-11-23T20:24:40.334Z,94432.23
2017-11-23T20:27:08.068Z,94419.88
2017-11-23T20:29:35.899Z,94427.61
2017-11-23T20:32:04.579Z,94426.03
2017-11-23T20:34:32.516Z,94429.70
2017-11-23T20:37:00.581Z,94428.67
2017-11-23T20:39:29.292Z,94423.78
2017-11-23T20:41:58.043Z,94423.69
2017-11-23T20:44:25.884Z,94431.70
2017-11-23T20:46:53.883Z,94435.16
2017-11-23T20:49:21.664Z,94434.03
2017-11-23T20:51:49.618Z,94431.70
2017-11-23T20:54:17.473Z,94431.57
2017-11-23T20:56:45.383Z,94441.48
2017-11-23T20:59:13.298Z,94431.25
2017-11-23T21:01:41.988Z,94434.55
2017-11-23T21:04:10.353Z,94436.31
2017-11-23T21:06:38.340Z,94434.71
2017-11-23T21:09:06.254Z,94438.38
2017-11-23T21:11:34.076Z,94441.91
2017-11-23T21:14:01.921Z,94443.56
2017-11-23T21:16:30.847Z,94445.94
2017-11-23T21:18:58.708Z,94441.69
2017-11-23T21:21:27.656Z,94450.64
2017-11-23T21:23:55.452Z,94444.95
2017-11-23T21:26:23.366Z,94452.87
2017-11-23T21:28:51.288Z,94461.97
2017-11-23T21:31:19.150Z,94456.88
2017-11-23T21:33:46.956Z,94463.94
2017-11-23T21:36:14.834Z,94463.69
2017-11-23T21:38:42.634Z,94465.25
2017-11-23T21:41:10.440Z,94457.45
2017-11-23T21:43:38.222Z,94464.39
2017-11-23T21:46:07.458Z,94464.52
2017-11-23T21:48:35.329Z,94466.09
2017-11-23T21:51:03.165Z,94463.89
2017-11-23T21:53:30.902Z,94467.17
2017-11-23T21:55:58.608Z,94465.09
2017-11-23T21:58:26.355Z,94472.68
2017-11-23T22:00:54.105Z,94472.78
2017-11-23T22:03:21.813Z,94467.73
2017-11-23T22:05:49.634Z,94471.80
2017-11-23T22:08:17.369Z,94474.67
2017-11-23T22:10:45.136Z,94475.09
2017-11-23T22:13:13.685Z,94477.54
2017-11-23T22:15:41.490Z,94478.38
2017-11-23T22:18:09.388Z,94477.77
2017-11-23T22:20:37.145Z,94481.24
2017-11-23T22:23:04.883Z,94478.97
2017-11-23T22:25:32.688Z,94481.97
2017-11-23T22:28:00.381Z,94481.42
2017-11-23T22:30:28.136Z,94480.47
2017-11-23T22:32:55.875Z,94486.71
2017-11-23T22:35:23.599Z,94482.25
2017-11-23T22:37:51.366Z,94488.08
2017-11-23T22:40:19.079Z,94486.50
2017-11-23T22:42:46.828Z,94481.80
2017-11-23T22:45:15.298Z,94493.94
2017-11-23T22:47:43.066Z,94485.07
2017-11-23T22:50:10.834Z,94485.41
2017-11-23T22:52:38.622Z,94488.54
2017-11-23T22:55:06.402Z,94495.73
2017-11-23T22:57:34.093Z,94495.21
2017-11-23T23:00:01.846Z,94488.98
2017-11-23T23:02:29.595Z,94488.20
2017-11-23T23:04:57.293Z,94494.92
2017-11-23T23:07:25.097Z,94495.88
2017-11-23T23:09:52.854Z,94484.52
2017-11-23T23:12:21.705Z,94488.92
2017-11-23T23:14:49.387Z,94492.87
2017-11-23T23:17:17.144Z,94491.59
2017-11-23T23:19:44.893Z,94486.97
2017-11-23T23:22:12.613Z,94490.62
2017-11-23T23:24:40.385Z,94491.70
2017-11-23T23:27:08.245Z,94491.09
2017-11-23T23:29:36.033Z,94489.49
2017-11-23T23:32:03.744Z,94492.48
2017-11-23T23:34:31.520Z,94491.37
2017-11-23T23:36:59.190Z,94493.09
2017-11-23T23:39:26.881Z,94498.02
2017-11-23T23:41:54.616Z,94495.44
2017-11-23T23:44:22.351Z,94497.88
2017-11-23T23:46:50.138Z,94495.91
2017-11-23T23:49:17.849Z,94497.23
2017-11-23T23:51:45.584Z,94494.02
2017-11-23T23:54:13.405Z,94491.97
2017-11-23T23:56:41.109Z,94494.12
2017-11-23T23:59:08.930Z,94488.80
